• Join FlightAware (Why Join?)
  • Login
  • US Flag 
03:05AM EDT


 

Airport Tracker/Info


-or-


 

Live Flight TrackerFlight Track Log ✈ AAL9669 ✈ 21-Sep-2013 ✈ KLAX - KBFM

Flight Track Log - Related Links

Times and Time Zones

All times are in EDT time to prevent confusion due to time zone crossing. See the AAL9669 flight status page for this flight to view local times or setup timezone preferences in your user account.

Time Position Orientation Groundspeed Altitude Reporting Facility
EDT Latitude Longitude Course Direction KTS MPH feet Rate Location/Type
04:51PM 33.9333 -118.4500 239° Southwest 190 219 2,100  Level Southern California TRACON
04:52PM 33.9000 -118.5167 239° Southwest 260 299 4,000 1,920 Climbing Southern California TRACON
04:54PM 33.8272 -118.5550 204° Southwest 269 310 6,500 1,980 Climbing Los Angeles Center
04:55PM 33.7550 -118.5292 163° South 278 320 8,700 2,580 Climbing Los Angeles Center
04:56PM 33.6942 -118.4619 137° Southeast 298 343 11,900 3,360 Climbing Los Angeles Center
04:57PM 33.6600 -118.3308 107° East 368 423 15,700 3,420 Climbing Los Angeles Center
04:58PM 33.6578 -118.2047 91° East 388 447 19,000 2,580 Climbing Los Angeles Center
04:59PM 33.6581 -118.0972 90° East 402 463 21,100 2,460 Climbing Los Angeles Center
05:00PM 33.6556 -117.9228 91° East 429 494 24,200 2,880 Climbing Los Angeles Center
05:01PM 33.6531 -117.7372 91° East 456 525 27,100 2,280 Climbing Los Angeles Center
05:02PM 33.6517 -117.5772 91° East 473 544 29,400 1,620 Climbing Los Angeles Center
05:03PM 33.6489 -117.3706 91° East 510 587 30,800 1,380 Climbing Los Angeles Center
05:04PM 33.6464 -117.1878 91° East 543 625 32,300 1,740 Climbing Los Angeles Center
05:05PM 33.6469 -117.0011 90° East 560 644 34,400 1,980 Climbing Los Angeles Center
05:06PM 33.6419 -116.7747 91° East 558 642 36,800 1,920 Climbing Los Angeles Center
05:07PM 33.6383 -116.5894 91° East 554 638 38,800 1,800 Climbing Los Angeles Center
05:09PM 33.6328 -116.4081 92° East 546 628 40,600 1,020 Climbing Los Angeles Center
05:10PM 33.6264 -116.1936 92° East 536 617 41,000 180 Climbing Los Angeles Center
05:11PM 33.6217 -116.0150 92° East 533 613 41,000 -60 Level Los Angeles Center
05:12PM 33.6197 -115.8439 91° East 515 593 40,900  Descending Los Angeles Center
05:13PM 33.6161 -115.6714 91° East 515 593 41,000  Climbing Los Angeles Center
05:14PM 33.6108 -115.4972 92° East 520 598 41,000  Level Los Angeles Center
05:15PM 33.6058 -115.3231 92° East 523 602 41,000  Level Los Angeles Center
05:16PM 33.6025 -115.1492 91° East 523 602 41,000  Level Los Angeles Center
05:17PM 33.5969 -114.9744 92° East 525 604 41,000  Level Los Angeles Center
05:18PM 33.5908 -114.7650 92° East 525 604 41,000  Level Los Angeles Center
05:19PM 33.5772 -114.5917 95° East 523 602 41,000  Level Los Angeles Center
05:20PM 33.5611 -114.4189 96° East 522 601 41,000  Level Los Angeles Center
05:21PM 33.5442 -114.2475 97° East 521 600 41,000  Level Los Angeles Center
05:22PM 33.5286 -114.0756 96° East 519 597 41,000  Level Los Angeles Center
05:23PM 33.5122 -113.9058 97° East 515 593 41,000  Level Los Angeles Center
05:24PM 33.4922 -113.7381 98° East 510 587 41,000  Level Los Angeles Center
05:25PM 33.4653 -113.5633 100° East 513 590 41,000  Level Albuquerque Center
05:26PM 33.4356 -113.3967 102° East 511 588 41,000  Level Albuquerque Center
05:27PM 33.4056 -113.2300 102° East 512 589 41,000  Level Albuquerque Center
05:28PM 33.3756 -113.0644 102° East 509 586 41,000  Level Albuquerque Center
05:29PM 33.3456 -112.8981 102° East 510 587 41,000  Level Albuquerque Center
05:30PM 33.3161 -112.7328 102° East 509 586 41,000  Level Albuquerque Center
05:31PM 33.2803 -112.5353 102° East 503 579 41,000  Level Albuquerque Center
05:32PM 33.2508 -112.3711 102° East 507 583 41,000  Level Albuquerque Center
05:33PM 33.2208 -112.2089 102° East 505 581 41,000  Level Albuquerque Center
05:34PM 33.1906 -112.0461 102° East 506 582 41,000  Level Albuquerque Center
05:35PM 33.1608 -111.8847 102° East 505 581 41,000  Level Albuquerque Center
05:36PM 33.1294 -111.7225 103° East 504 580 41,000  Level Albuquerque Center
05:37PM 33.0978 -111.5608 103° East 504 580 41,000  Level Albuquerque Center
05:38PM 33.0617 -111.3675 103° East 502 578 41,000  Level Albuquerque Center
05:39PM 33.0311 -111.2064 103° East 501 577 41,000  Level Albuquerque Center
05:40PM 32.9989 -111.0469 104° East 498 573 41,000  Level Albuquerque Center
05:41PM 32.9692 -110.8867 102° East 498 573 41,000  Level Albuquerque Center
05:42PM 32.9364 -110.7275 104° East 497 572 41,000  Level Albuquerque Center
05:43PM 32.9061 -110.5692 103° East 497 572 41,000  Level Albuquerque Center
05:44PM 32.8742 -110.4097 103° East 497 572 41,000  Level Albuquerque Center
05:45PM 32.8419 -110.2514 104° East 497 572 41,000  Level Albuquerque Center
05:46PM 32.8028 -110.0600 104° East 497 572 41,000  Level Albuquerque Center
05:47PM 32.7694 -109.9008 104° East 498 573 41,000  Level Albuquerque Center
05:48PM 32.7358 -109.7433 104° East 497 572 41,000  Level Albuquerque Center
05:49PM 32.7031 -109.5842 104° East 499 574 41,000  Level Albuquerque Center
05:51PM 32.6683 -109.4247 104° East 502 578 41,000  Level Albuquerque Center
05:52PM 32.6347 -109.2678 104° East 498 573 41,000  Level Albuquerque Center
05:53PM 32.5933 -109.0803 105° East 496 571 41,000  Level Albuquerque Center
05:54PM 32.5603 -108.9244 104° East 495 570 41,000  Level Albuquerque Center
05:55PM 32.5258 -108.7689 105° East 493 567 41,000  Level Albuquerque Center
05:56PM 32.4919 -108.6142 105° East 491 565 41,000  Level Albuquerque Center
05:57PM 32.4575 -108.4583 105° East 491 565 41,000  Level Albuquerque Center
05:58PM 32.4172 -108.2772 105° East 491 565 41,000  Level Albuquerque Center
05:59PM 32.3839 -108.1233 104° East 488 562 41,000  Level Albuquerque Center
06:00PM 32.3494 -107.9686 105° East 488 562 41,000  Level Albuquerque Center
06:01PM 32.3142 -107.8153 105° East 487 560 41,000  Level Albuquerque Center
06:02PM 32.2794 -107.6619 105° East 487 560 41,000  Level Albuquerque Center
06:03PM 32.2431 -107.5014 105° East 487 560 41,000  Level Albuquerque Center
06:04PM 32.2078 -107.3481 105° East 485 558 41,000  Level Albuquerque Center
06:05PM 32.1675 -107.1739 105° East 488 562 41,000  Level Albuquerque Center
06:06PM 32.1350 -107.0206 104° East 490 564 41,000  Level Albuquerque Center
06:07PM 32.0986 -106.8683 106° East 488 562 41,000  Level Albuquerque Center
06:08PM 32.0633 -106.7169 105° East 485 558 41,000  Level Albuquerque Center
06:09PM 32.0258 -106.5639 106° East 487 560 41,000  Level Albuquerque Center
06:10PM 31.9906 -106.4111 105° East 487 560 41,000  Level Albuquerque Center
06:11PM 31.9583 -106.2558 104° East 491 565 41,000  Level Albuquerque Center
06:12PM 31.9539 -106.0636 92° East 492 566 41,000  Level Albuquerque Center
06:13PM 31.9497 -105.9264 92° East 485 558 41,000  Level Albuquerque Center
06:14PM 31.9458 -105.7372 91° East 482 555 41,000  Level Albuquerque Center
06:15PM 31.9433 -105.5794 91° East 481 554 41,000  Level Albuquerque Center
06:16PM 31.9394 -105.4228 92° East 479 551 41,000  Level Albuquerque Center
06:17PM 31.9364 -105.2669 91° East 477 549 41,000  Level Albuquerque Center
06:18PM 31.9339 -105.1111 91° East 476 548 41,000  Level Albuquerque Center
06:19PM 31.9294 -104.9528 92° East 480 552 41,000  Level Albuquerque Center
06:20PM 31.9258 -104.7953 92° East 482 555 41,000  Level Albuquerque Center
06:21PM 31.9208 -104.6364 92° East 484 557 41,000  Level Albuquerque Center
06:22PM 31.9175 -104.4781 91° East 484 557 41,000  Level Albuquerque Center
06:23PM 31.9119 -104.3172 92° East 488 562 41,000  Level Albuquerque Center
06:24PM 31.9086 -104.1278 91° East 485 558 41,000  Level Albuquerque Center
06:25PM 31.9075 -103.9906 91° East 483 556 41,000  Level Albuquerque Center
06:26PM 31.9047 -103.8000 91° East 486 559 41,000  Level Albuquerque Center
06:27PM 31.9028 -103.6444 91° East 482 555 41,000  Level Albuquerque Center
06:28PM 31.9014 -103.4864 91° East 483 556 41,000  Level Albuquerque Center
06:29PM 31.8986 -103.3303 91° East 482 555 41,000  Level Albuquerque Center
06:31PM 31.8947 -103.1733 92° East 481 554 41,000  Level Albuquerque Center
06:32PM 31.8906 -103.0211 92° East 483 556 41,000  Level Albuquerque Center
06:33PM 31.8869 -102.8314 91° East 483 556 41,000  Level Albuquerque Center
06:34PM 31.8842 -102.6728 91° East 483 556 41,000  Level Albuquerque Center
06:35PM 31.8803 -102.5142 92° East 483 556 41,000  Level Albuquerque Center
06:36PM 31.8742 -102.3539 93° East 488 562 41,000  Level Albuquerque Center
06:37PM 31.8711 -102.1947 91° East 492 566 41,000  Level Albuquerque Center
06:38PM 31.8689 -101.9947 91° East 485 558 41,000  Level Fort Worth Center
06:39PM 31.8642 -101.8356 92° East 485 558 41,000  Level Fort Worth Center
06:40PM 31.8592 -101.6739 92° East 490 564 41,000  Level Fort Worth Center
06:41PM 31.8542 -101.5147 92° East 485 558 41,000  Level Fort Worth Center
06:42PM 31.8489 -101.3508 92° East 490 564 41,000  Level Fort Worth Center
06:43PM 31.8433 -101.1892 92° East 490 564 41,000  Level Fort Worth Center
06:44PM 31.8378 -101.0250 92° East 496 571 41,000  Level Fort Worth Center
06:45PM 31.8297 -100.8658 93° East 496 571 41,000  Level Fort Worth Center
06:46PM 31.8278 -100.7069 91° East 496 571 41,000  Level Fort Worth Center
06:47PM 31.8197 -100.5306 93° East 496 571 41,000  Level Fort Worth Center
06:48PM 31.8111 -100.3664 93° East 496 571 41,000  Level Fort Worth Center
06:49PM 31.8064 -100.2075 92° East 496 571 41,000  Level Fort Worth Center
06:50PM 31.7994 -100.0436 93° East 496 571 41,000  Level Fort Worth Center
06:51PM 31.7922 -99.8819 93° East 496 571 41,000  Level Fort Worth Center
06:52PM 31.7869 -99.7206 92° East 496 571 41,000  Level Fort Worth Center
06:53PM 31.7817 -99.5567 92° East 496 571 41,000  Level Fort Worth Center
06:54PM 31.7739 -99.3928 93° East 503 579 41,000  Level Fort Worth Center
06:55PM 31.7658 -99.2314 93° East 498 573 41,000  Level Fort Worth Center
06:56PM 31.7597 -99.0700 93° East 498 573 41,000  Level Fort Worth Center
06:57PM 31.7492 -98.9086 94° East 498 573 41,000  Level Fort Worth Center
06:58PM 31.7425 -98.7764 93° East 498 573 41,000  Level Fort Worth Center
06:59PM 31.7319 -98.5858 94° East 493 567 41,000  Level Fort Worth Center
07:00PM 31.7269 -98.4244 92° East 498 573 41,000  Level Fort Worth Center
07:01PM 31.7178 -98.2608 94° East 498 573 41,000  Level Fort Worth Center
07:02PM 31.7083 -98.0994 94° East 503 579 41,000  Level Fort Worth Center
07:03PM 31.6986 -97.9578 95° East 498 573 41,000  Level Fort Worth Center
07:04PM 31.6908 -97.7942 93° East 498 573 41,000  Level Fort Worth Center
07:05PM 31.6828 -97.6356 93° East 493 567 41,000  Level Fort Worth Center
07:06PM 31.6725 -97.4719 94° East 493 567 41,000  Level Fort Worth Center
07:07PM 31.6622 -97.2889 94° East 498 573 41,000  Level Fort Worth Center
07:08PM 31.6514 -97.1278 94° East 498 573 41,000  Level Fort Worth Center
07:09PM 31.6425 -96.9619 94° East 504 580 41,000  Level Fort Worth Center
07:10PM 31.6314 -96.7986 95° East 504 580 41,000  Level Fort Worth Center
07:11PM 31.6200 -96.6350 95° East 498 573 41,000  Level Fort Worth Center
07:12PM 31.6086 -96.4717 95° East 503 579 41,000  Level Fort Worth Center
07:13PM 31.5969 -96.3108 95° East 503 579 41,000  Level Fort Worth Center
07:14PM 31.5850 -96.1622 95° East 503 579 41,000  Level Fort Worth Center
07:15PM 31.5728 -96.0017 95° East 495 570 41,000  Level Fort Worth Center
07:16PM 31.5625 -95.8383 94° East 505 581 41,000  Level Fort Worth Center
07:17PM 31.5481 -95.6753 96° East 510 587 41,000  Level Fort Worth Center
07:18PM 31.5350 -95.5122 95° East 505 581 41,000  Level Fort Worth Center
07:19PM 31.5222 -95.3522 95° East 500 575 41,000  Level Houston Center
07:20PM 31.5075 -95.1897 96° East 499 574 41,000  Level Houston Center
07:21PM 31.4922 -95.0306 96° East 490 564 41,000  Level Houston Center
07:22PM 31.4792 -94.8656 95° East 497 572 41,000  Level Houston Center
07:23PM 31.4656 -94.6992 95° East 503 579 41,000  Level Houston Center
07:24PM 31.4503 -94.5339 96° East 503 579 41,000  Level Houston Center
07:25PM 31.4361 -94.3703 96° East 501 577 41,000  Level Houston Center
07:26PM 31.4194 -94.2069 97° East 502 578 41,000  Level Houston Center
07:27PM 31.4056 -94.0461 96° East 497 572 41,000  Level Houston Center
07:28PM 31.3914 -93.8842 96° East 498 573 41,000  Level Houston Center
07:29PM 31.3744 -93.7233 97° East 496 571 41,000  Level Houston Center
07:30PM 31.3506 -93.5453 99° East 497 572 41,000  Level Houston Center
07:31PM 31.3294 -93.3861 99° East 496 571 41,000  Level Houston Center
07:32PM 31.3078 -93.2197 99° East 498 573 41,000  Level Houston Center
07:33PM 31.2864 -93.0589 99° East 499 574 41,000  Level Houston Center
07:34PM 31.2653 -92.8969 99° East 502 578 41,000  Level Houston Center
07:35PM 31.2433 -92.7347 99° East 503 579 41,000  Level Houston Center
07:36PM 31.2203 -92.5700 99° East 512 589 41,000  Level Houston Center
07:37PM 31.1972 -92.4089 99° East 507 583 41,000  Level Houston Center
07:38PM 31.1728 -92.2464 100° East 506 582 41,000  Level Houston Center
07:39PM 31.1508 -92.0844 99° East 504 580 41,000  Level Houston Center
07:40PM 31.1236 -91.9144 101° East 510 587 41,000  Level Houston Center
07:41PM 31.1000 -91.7539 100° East 505 581 41,000  Level Houston Center
07:42PM 31.0758 -91.5925 100° East 506 582 41,000  Level Houston Center
07:43PM 31.0522 -91.4317 100° East 505 581 41,000 -180 Level Houston Center
07:44PM 31.0264 -91.2567 100° East 508 585 40,700 -660 Descending Houston Center
07:45PM 31.0017 -91.0933 100° East 513 590 39,700 -960 Descending Houston Center
07:46PM 30.9764 -90.9294 100° East 513 590 38,800 -960 Descending Houston Center
07:47PM 30.9497 -90.7683 101° East 510 587 37,800 -960 Descending Houston Center
07:48PM 30.9258 -90.6058 100° East 508 585 36,900 -900 Descending Houston Center
07:49PM 30.9003 -90.4444 100° East 508 585 36,000 -960 Descending Houston Center
07:50PM 30.8753 -90.2831 100° East 506 582 35,000 -960 Descending Houston Center
07:51PM 30.8508 -90.1217 100° East 505 581 34,100 -1,020 Descending Houston Center
07:52PM 30.8258 -89.9597 100° East 506 582 33,000 -1,140 Descending Houston Center
07:53PM 30.8000 -89.7978 100° East 506 582 31,800 -1,260 Descending Houston Center
07:54PM 30.7739 -89.6369 101° East 503 579 30,500 -1,560 Descending Houston Center
07:55PM 30.7478 -89.4767 101° East 502 578 28,700 -2,280 Descending Houston Center
07:56PM 30.7181 -89.2956 101° East 476 548 25,900 -2,460 Descending Houston Center
07:57PM 30.6914 -89.1497 102° East 463 533 23,800 -2,340 Descending Houston Center
07:58PM 30.6694 -89.0172 101° East 424 488 21,300 -2,580 Descending Houston Center
07:59PM 30.6475 -88.8992 102° East 413 475 18,600 -2,760 Descending Houston Center
08:01PM 30.6247 -88.7742 102° East 401 461 15,700 -3,000 Descending Houston Center
08:02PM 30.6061 -88.6642 101° East 353 406 12,600 -2,820 Descending Houston Center
08:03PM 30.5894 -88.5639 101° East 324 373 10,000 -2,580 Descending Houston Center
08:04PM 30.5703 -88.4508 101° East 306 352 7,400 -1,980 Descending Houston Center
08:05PM 30.5567 -88.3708 101° East 265 305 6,000 -1,140 Descending Houston Center
08:06PM 30.5428 -88.2911 101° East 254 292 5,100 -900 Descending Houston Center
08:07PM 30.5292 -88.2161 102° East 244 281 4,200 -840 Descending Houston Center
08:08PM 30.5158 -88.1422 102° East 238 274 3,500 -840 Descending Houston Center
08:09PM 30.5036 -88.0700 101° East 235 270 2,600 -720 Descending Houston Center
08:10PM 30.4781 -88.0103 116° Southeast 221 254 2,100 -300 Descending Houston Center
08:11PM 30.5111 -87.9650 50° Northeast 211 243 2,100 -300 Level Houston Center
08:12PM 30.5506 -87.9944 327° Northwest 182 209 1,600 -600 Descending Houston Center
08:13PM 30.5781 -88.0219 319° Northwest 154 177 1,000 -660 Descending Houston Center
08:14PM 30.6050 -88.0494 319° Northwest 122 140 300 -420 Descending Houston Center
08:15PM 30.6294 -88.0739 319° Northwest 120 138 200 -120 Descending Houston Center
08:17PM 30.6268 -88.0681 North  Level Estimated